createdAt,value
2023-02-28T00:00:41.088Z,4.40
2023-02-28T00:04:12.501Z,6.80
2023-02-28T00:06:15.341Z,6.90
2023-02-28T00:08:15.770Z,6.10
2023-02-28T00:12:51.020Z,5.30
2023-02-28T00:16:56.823Z,8.20
2023-02-28T00:21:00.905Z,6.80
2023-02-28T00:23:31.643Z,8.40
2023-02-28T00:25:32.058Z,5.90
2023-02-28T00:28:37.994Z,6.30
2023-02-28T00:30:08.936Z,7.50
2023-02-28T00:32:40.471Z,5.30
2023-02-28T00:37:49.314Z,5.00
2023-02-28T00:39:19.466Z,8.70
2023-02-28T00:43:27.648Z,4.20
2023-02-28T00:45:30.524Z,5.90
2023-02-28T00:52:37.320Z,5.10
2023-02-28T00:55:42.479Z,5.50
2023-02-28T00:58:16.501Z,8.20
2023-02-28T01:01:49.210Z,6.00
2023-02-28T01:03:49.885Z,5.00
2023-02-28T01:06:23.893Z,5.60
2023-02-28T01:09:28.215Z,6.20
2023-02-28T01:11:29.839Z,6.30
2023-02-28T01:12:59.813Z,6.50
2023-02-28T01:18:09.553Z,4.90
2023-02-28T01:21:40.572Z,4.30
2023-02-28T01:23:41.022Z,6.00
2023-02-28T01:26:13.376Z,7.10
2023-02-28T01:29:16.046Z,8.70
2023-02-28T01:33:51.320Z,6.20
2023-02-28T01:35:21.427Z,7.10
2023-02-28T01:38:56.058Z,6.10
2023-02-28T01:45:31.756Z,8.70
2023-02-28T01:47:02.640Z,7.70
2023-02-28T01:49:04.739Z,8.40
2023-02-28T01:51:35.455Z,5.50
2023-02-28T01:55:42.854Z,7.20
2023-02-28T01:57:13.778Z,10.10
2023-02-28T02:00:50.052Z,6.10
2023-02-28T02:02:52.131Z,7.20
2023-02-28T02:05:53.126Z,6.20
2023-02-28T02:09:26.160Z,6.00
2023-02-28T02:13:58.921Z,6.50
2023-02-28T02:15:29.026Z,7.80
2023-02-28T02:16:59.170Z,5.80
2023-02-28T02:19:00.388Z,7.80
2023-02-28T02:23:03.046Z,8.10
2023-02-28T02:26:36.701Z,8.90
2023-02-28T02:28:37.936Z,9.60
2023-02-28T02:31:08.684Z,9.90
2023-02-28T02:36:11.756Z,4.70
2023-02-28T02:39:46.406Z,4.80
2023-02-28T02:41:46.825Z,7.20
2023-02-28T02:43:47.223Z,5.20
2023-02-28T02:46:49.180Z,6.40
2023-02-28T02:50:33.552Z,5.40
2023-02-28T02:55:39.949Z,5.00
2023-02-28T02:57:40.364Z,5.20
2023-02-28T03:00:43.070Z,7.00
2023-02-28T03:02:43.463Z,5.40
2023-02-28T03:04:13.569Z,5.70
2023-02-28T03:13:01.139Z,7.90
2023-02-28T03:15:01.568Z,6.00
2023-02-28T03:17:33.124Z,6.90
2023-02-28T03:19:33.548Z,5.60
2023-02-28T03:22:05.894Z,4.60
2023-02-28T03:23:36.024Z,5.50
2023-02-28T03:25:06.160Z,6.30
2023-02-28T03:27:08.204Z,5.20
2023-02-28T03:32:12.151Z,7.00
2023-02-28T03:36:17.906Z,6.40
2023-02-28T03:37:48.809Z,7.60
2023-02-28T03:41:50.472Z,6.80
2023-02-28T03:43:50.915Z,5.30
2023-02-28T03:47:27.994Z,5.80
2023-02-28T03:50:01.993Z,4.20
2023-02-28T03:53:35.782Z,5.10
2023-02-28T03:56:08.191Z,5.00
2023-02-28T03:58:08.584Z,5.60
2023-02-28T04:00:09.013Z,6.30
2023-02-28T04:03:10.053Z,8.10
2023-02-28T04:07:11.719Z,5.90
2023-02-28T04:08:42.246Z,5.60
2023-02-28T04:16:55.826Z,6.40
2023-02-28T04:20:51.752Z,5.70
2023-02-28T04:23:32.276Z,6.20
2023-02-28T04:25:54.037Z,6.50
2023-02-28T04:27:43.826Z,7.20
2023-02-28T04:29:44.195Z,5.70
2023-02-28T04:32:04.059Z,4.60
2023-02-28T04:33:32.784Z,8.00
2023-02-28T04:36:35.482Z,6.60
2023-02-28T04:44:24.036Z,5.80
2023-02-28T04:52:40.481Z,7.30
2023-02-28T04:54:10.579Z,6.60
2023-02-28T04:57:01.345Z,5.80
2023-02-28T05:06:02.465Z,8.60
2023-02-28T05:07:32.586Z,8.40
2023-02-28T05:09:03.492Z,7.10
2023-02-28T05:11:03.122Z,5.50
2023-02-28T05:12:34.040Z,5.40
2023-02-28T05:14:04.969Z,10.40
2023-02-28T05:15:35.802Z,5.40
2023-02-28T05:19:40.031Z,4.90
2023-02-28T05:22:09.255Z,8.00
2023-02-28T05:28:43.971Z,8.40
2023-02-28T05:30:13.688Z,6.30
2023-02-28T05:40:30.235Z,7.10
2023-02-28T05:43:59.216Z,6.40
2023-02-28T05:44:59.198Z,7.20
2023-02-28T05:45:59.233Z,7.70
2023-02-28T05:46:59.186Z,6.50
2023-02-28T05:49:30.635Z,8.20
2023-02-28T05:55:34.232Z,7.00
2023-02-28T05:59:06.628Z,5.70
2023-02-28T06:00:36.624Z,6.90
2023-02-28T06:06:11.572Z,6.00
2023-02-28T06:09:16.199Z,5.10
2023-02-28T06:14:24.208Z,6.40
2023-02-28T06:16:58.895Z,7.20
2023-02-28T06:24:36.968Z,8.30
2023-02-28T06:27:10.958Z,5.20
2023-02-28T06:29:11.396Z,6.90
2023-02-28T06:30:41.508Z,5.70
2023-02-28T06:32:11.631Z,6.30
2023-02-28T06:34:43.475Z,6.70
2023-02-28T06:37:48.330Z,8.70
2023-02-28T06:39:17.607Z,6.50
2023-02-28T06:41:18.851Z,5.30
2023-02-28T06:42:48.955Z,7.70
2023-02-28T06:44:50.999Z,6.10
2023-02-28T06:50:53.927Z,5.30
2023-02-28T06:58:40.871Z,5.90
2023-02-28T07:04:16.754Z,5.00
2023-02-28T07:11:28.086Z,4.40
2023-02-28T07:16:00.431Z,6.10
2023-02-28T07:17:30.327Z,4.10
2023-02-28T07:21:37.103Z,5.70
2023-02-28T07:24:07.865Z,4.90
2023-02-28T07:26:38.584Z,4.90
2023-02-28T07:29:10.120Z,4.90
2023-02-28T07:30:40.251Z,8.40
2023-02-28T07:32:10.395Z,4.40
2023-02-28T07:33:40.474Z,4.70
2023-02-28T07:35:40.915Z,5.10
2023-02-28T07:38:15.732Z,4.20
2023-02-28T07:40:16.138Z,5.20
2023-02-28T07:42:16.572Z,4.20
2023-02-28T07:44:16.979Z,5.30
2023-02-28T07:45:16.963Z,5.20
2023-02-28T07:46:16.978Z,4.50
2023-02-28T07:50:47.421Z,4.20
2023-02-28T07:54:49.421Z,3.70
2023-02-28T07:59:56.595Z,5.70
2023-02-28T08:02:28.991Z,2.80
2023-02-28T08:09:04.663Z,3.90
2023-02-28T08:11:37.028Z,4.20
2023-02-28T08:15:41.982Z,2.70
2023-02-28T08:18:17.596Z,3.50
2023-02-28T08:19:46.907Z,3.90
2023-02-28T08:21:17.002Z,3.00
2023-02-28T08:26:20.943Z,3.70
2023-02-28T08:28:26.021Z,3.40
2023-02-28T08:30:24.230Z,3.60
2023-02-28T08:37:06.456Z,2.70
2023-02-28T08:40:09.957Z,3.60
2023-02-28T08:43:12.646Z,3.40
2023-02-28T08:44:43.562Z,3.30
2023-02-28T08:46:13.750Z,2.40
2023-02-28T08:51:06.041Z,2.50
2023-02-28T08:52:52.637Z,2.50
2023-02-28T08:55:54.478Z,8.60
2023-02-28T08:57:24.613Z,2.00
2023-02-28T09:01:00.925Z,4.00
2023-02-28T09:03:01.296Z,4.90
2023-02-28T09:11:16.099Z,3.10
2023-02-28T09:14:19.612Z,2.50
2023-02-28T09:15:50.526Z,2.50
2023-02-28T09:19:24.341Z,3.40
2023-02-28T09:23:57.142Z,1.50
2023-02-28T09:28:02.075Z,1.50
2023-02-28T09:30:33.709Z,1.20
2023-02-28T09:32:03.791Z,1.60
2023-02-28T09:33:33.862Z,1.50
2023-02-28T09:41:07.687Z,1.80
2023-02-28T09:42:37.821Z,1.80
2023-02-28T09:49:15.917Z,1.50
2023-02-28T09:50:46.044Z,1.40
2023-02-28T09:52:46.468Z,1.70
2023-02-28T09:55:49.139Z,2.40
2023-02-28T09:57:49.561Z,3.20
2023-02-28T10:00:22.818Z,1.30
2023-02-28T10:01:52.091Z,3.20
2023-02-28T10:05:27.494Z,2.30
2023-02-28T10:06:56.940Z,1.90
2023-02-28T10:07:56.908Z,2.20
2023-02-28T10:08:56.886Z,1.10
2023-02-28T10:09:56.897Z,1.30
2023-02-28T10:11:27.133Z,1.80
2023-02-28T10:12:58.049Z,3.10
2023-02-28T10:14:58.489Z,2.00
2023-02-28T10:17:00.565Z,2.20
2023-02-28T10:18:29.948Z,2.90
2023-02-28T10:21:02.201Z,1.50
2023-02-28T10:27:43.613Z,1.60
2023-02-28T10:30:14.329Z,2.00
2023-02-28T10:32:14.855Z,1.50
2023-02-28T10:41:23.621Z,1.90
2023-02-28T10:43:54.316Z,1.50
2023-02-28T10:48:58.291Z,1.40
2023-02-28T10:52:00.168Z,1.80
2023-02-28T10:55:02.836Z,2.80
2023-02-28T10:56:33.204Z,1.00
2023-02-28T10:59:05.321Z,1.60
2023-02-28T11:02:08.938Z,2.10
2023-02-28T11:05:40.161Z,1.90
2023-02-28T11:07:53.056Z,2.40
2023-02-28T11:09:11.521Z,1.70
2023-02-28T11:13:43.503Z,2.70
2023-02-28T11:16:15.865Z,1.90
2023-02-28T11:19:20.434Z,1.70
2023-02-28T11:23:57.062Z,1.90
2023-02-28T11:26:58.130Z,2.10
2023-02-28T11:30:29.477Z,2.30
2023-02-28T11:33:32.401Z,3.70
2023-02-28T11:35:02.257Z,2.60
2023-02-28T11:36:32.374Z,1.80
2023-02-28T11:42:09.884Z,2.60
2023-02-28T11:45:45.316Z,1.20
2023-02-28T11:48:48.826Z,3.40
